sensor_id;sensor_type;location;lat;lon;timestamp;P1;durP1;ratioP1;P2;durP2;ratioP2
2191;SDS011;1102;49.718;11.902;2023-03-01T00:01:29;17.07;;;12.17;;
2191;SDS011;1102;49.718;11.902;2023-03-01T00:03:57;17.80;;;13.20;;
2191;SDS011;1102;49.718;11.902;2023-03-01T00:06:25;21.77;;;11.50;;
2191;SDS011;1102;49.718;11.902;2023-03-01T00:08:52;21.70;;;13.07;;
2191;SDS011;1102;49.718;11.902;2023-03-01T00:11:20;17.33;;;12.60;;
2191;SDS011;1102;49.718;11.902;2023-03-01T00:13:50;13.10;;;9.60;;
2191;SDS011;1102;49.718;11.902;2023-03-01T00:16:20;18.23;;;12.93;;
2191;SDS011;1102;49.718;11.902;2023-03-01T00:18:48;18.73;;;12.20;;
2191;SDS011;1102;49.718;11.902;2023-03-01T00:21:15;17.90;;;12.70;;
2191;SDS011;1102;49.718;11.902;2023-03-01T00:23:43;13.57;;;10.90;;
2191;SDS011;1102;49.718;11.902;2023-03-01T00:26:10;16.03;;;13.17;;
2191;SDS011;1102;49.718;11.902;2023-03-01T00:28:39;15.77;;;12.23;;
2191;SDS011;1102;49.718;11.902;2023-03-01T00:31:07;19.67;;;12.57;;
2191;SDS011;1102;49.718;11.902;2023-03-01T00:33:39;19.00;;;13.03;;
2191;SDS011;1102;49.718;11.902;2023-03-01T00:36:06;15.80;;;13.10;;
2191;SDS011;1102;49.718;11.902;2023-03-01T00:38:39;17.27;;;13.17;;
2191;SDS011;1102;49.718;11.902;2023-03-01T00:41:12;20.00;;;12.63;;
2191;SDS011;1102;49.718;11.902;2023-03-01T00:43:40;18.43;;;13.83;;
2191;SDS011;1102;49.718;11.902;2023-03-01T00:46:09;19.90;;;12.23;;
2191;SDS011;1102;49.718;11.902;2023-03-01T00:48:40;22.40;;;12.50;;
2191;SDS011;1102;49.718;11.902;2023-03-01T00:51:11;17.87;;;13.00;;
2191;SDS011;1102;49.718;11.902;2023-03-01T00:53:52;19.33;;;13.07;;
2191;SDS011;1102;49.718;11.902;2023-03-01T00:56:20;22.47;;;12.77;;
2191;SDS011;1102;49.718;11.902;2023-03-01T00:58:47;18.73;;;13.07;;
2191;SDS011;1102;49.718;11.902;2023-03-01T01:01:15;17.53;;;11.77;;
2191;SDS011;1102;49.718;11.902;2023-03-01T01:06:18;18.57;;;12.90;;
2191;SDS011;1102;49.718;11.902;2023-03-01T01:08:48;16.23;;;12.33;;
2191;SDS011;1102;49.718;11.902;2023-03-01T01:11:15;18.57;;;11.57;;
2191;SDS011;1102;49.718;11.902;2023-03-01T01:13:44;17.77;;;13.13;;
2191;SDS011;1102;49.718;11.902;2023-03-01T01:16:12;20.10;;;11.47;;
2191;SDS011;1102;49.718;11.902;2023-03-01T01:18:39;17.33;;;12.70;;
2191;SDS011;1102;49.718;11.902;2023-03-01T01:21:08;22.50;;;12.23;;
2191;SDS011;1102;49.718;11.902;2023-03-01T01:23:37;18.40;;;15.27;;
2191;SDS011;1102;49.718;11.902;2023-03-01T01:26:15;16.17;;;11.30;;
2191;SDS011;1102;49.718;11.902;2023-03-01T01:28:45;15.70;;;11.57;;
2191;SDS011;1102;49.718;11.902;2023-03-01T01:31:12;16.67;;;12.10;;
2191;SDS011;1102;49.718;11.902;2023-03-01T01:33:39;21.93;;;13.77;;
2191;SDS011;1102;49.718;11.902;2023-03-01T01:36:07;19.13;;;14.20;;
2191;SDS011;1102;49.718;11.902;2023-03-01T01:38:35;15.10;;;12.47;;
2191;SDS011;1102;49.718;11.902;2023-03-01T01:41:03;16.10;;;12.40;;
2191;SDS011;1102;49.718;11.902;2023-03-01T01:43:35;17.10;;;12.13;;
2191;SDS011;1102;49.718;11.902;2023-03-01T01:46:12;17.20;;;11.73;;
2191;SDS011;1102;49.718;11.902;2023-03-01T01:48:44;19.40;;;13.43;;
2191;SDS011;1102;49.718;11.902;2023-03-01T01:51:24;17.73;;;12.13;;
2191;SDS011;1102;49.718;11.902;2023-03-01T01:53:55;18.80;;;13.33;;
2191;SDS011;1102;49.718;11.902;2023-03-01T01:56:26;16.23;;;13.60;;
2191;SDS011;1102;49.718;11.902;2023-03-01T01:58:56;17.10;;;13.10;;
2191;SDS011;1102;49.718;11.902;2023-03-01T02:01:23;17.23;;;12.30;;
2191;SDS011;1102;49.718;11.902;2023-03-01T02:03:50;19.03;;;14.00;;
2191;SDS011;1102;49.718;11.902;2023-03-01T02:06:26;17.57;;;12.60;;
2191;SDS011;1102;49.718;11.902;2023-03-01T02:09:00;17.90;;;13.53;;
2191;SDS011;1102;49.718;11.902;2023-03-01T02:11:31;19.83;;;13.10;;
2191;SDS011;1102;49.718;11.902;2023-03-01T02:13:58;16.87;;;12.67;;
2191;SDS011;1102;49.718;11.902;2023-03-01T02:16:25;16.97;;;13.70;;
2191;SDS011;1102;49.718;11.902;2023-03-01T02:18:54;17.33;;;13.60;;
2191;SDS011;1102;49.718;11.902;2023-03-01T02:26:55;19.97;;;13.50;;
2191;SDS011;1102;49.718;11.902;2023-03-01T02:29:23;18.00;;;12.60;;
2191;SDS011;1102;49.718;11.902;2023-03-01T02:31:51;23.63;;;13.50;;
2191;SDS011;1102;49.718;11.902;2023-03-01T02:34:24;18.03;;;12.10;;
2191;SDS011;1102;49.718;11.902;2023-03-01T02:36:57;20.20;;;13.10;;
2191;SDS011;1102;49.718;11.902;2023-03-01T02:39:31;18.40;;;13.70;;
2191;SDS011;1102;49.718;11.902;2023-03-01T02:42:03;23.03;;;13.50;;
2191;SDS011;1102;49.718;11.902;2023-03-01T02:44:30;18.27;;;13.00;;
2191;SDS011;1102;49.718;11.902;2023-03-01T02:46:57;16.50;;;12.90;;
2191;SDS011;1102;49.718;11.902;2023-03-01T02:49:30;20.13;;;12.83;;
2191;SDS011;1102;49.718;11.902;2023-03-01T02:54:41;17.27;;;14.43;;
2191;SDS011;1102;49.718;11.902;2023-03-01T02:57:10;18.20;;;14.27;;
2191;SDS011;1102;49.718;11.902;2023-03-01T02:59:38;22.93;;;14.97;;
2191;SDS011;1102;49.718;11.902;2023-03-01T03:02:07;22.03;;;12.83;;
2191;SDS011;1102;49.718;11.902;2023-03-01T03:04:46;20.00;;;15.00;;
2191;SDS011;1102;49.718;11.902;2023-03-01T03:07:13;19.47;;;13.23;;
2191;SDS011;1102;49.718;11.902;2023-03-01T03:09:40;19.00;;;14.03;;
2191;SDS011;1102;49.718;11.902;2023-03-01T03:12:07;21.80;;;13.30;;
2191;SDS011;1102;49.718;11.902;2023-03-01T03:14:34;19.67;;;14.23;;
2191;SDS011;1102;49.718;11.902;2023-03-01T03:17:01;18.33;;;13.70;;
2191;SDS011;1102;49.718;11.902;2023-03-01T03:19:32;19.63;;;13.90;;
2191;SDS011;1102;49.718;11.902;2023-03-01T03:21:59;23.23;;;15.40;;
2191;SDS011;1102;49.718;11.902;2023-03-01T03:24:25;16.73;;;13.23;;
2191;SDS011;1102;49.718;11.902;2023-03-01T03:26:53;18.77;;;13.00;;
2191;SDS011;1102;49.718;11.902;2023-03-01T03:29:20;17.23;;;13.40;;
2191;SDS011;1102;49.718;11.902;2023-03-01T03:31:46;19.87;;;14.27;;
2191;SDS011;1102;49.718;11.902;2023-03-01T03:34:13;16.57;;;14.03;;
2191;SDS011;1102;49.718;11.902;2023-03-01T03:36:44;20.40;;;14.07;;
2191;SDS011;1102;49.718;11.902;2023-03-01T03:39:11;23.77;;;14.00;;
2191;SDS011;1102;49.718;11.902;2023-03-01T03:41:37;24.70;;;14.30;;
2191;SDS011;1102;49.718;11.902;2023-03-01T03:44:04;20.33;;;14.23;;
2191;SDS011;1102;49.718;11.902;2023-03-01T03:46:30;20.47;;;13.87;;
2191;SDS011;1102;49.718;11.902;2023-03-01T03:48:58;21.57;;;14.57;;
2191;SDS011;1102;49.718;11.902;2023-03-01T03:51:25;19.23;;;14.70;;
2191;SDS011;1102;49.718;11.902;2023-03-01T03:53:51;22.50;;;14.67;;
2191;SDS011;1102;49.718;11.902;2023-03-01T03:56:18;18.57;;;13.77;;
2191;SDS011;1102;49.718;11.902;2023-03-01T03:58:45;24.23;;;14.73;;
2191;SDS011;1102;49.718;11.902;2023-03-01T04:01:11;18.10;;;13.70;;
2191;SDS011;1102;49.718;11.902;2023-03-01T04:03:38;17.90;;;14.00;;
2191;SDS011;1102;49.718;11.902;2023-03-01T04:06:05;19.20;;;12.97;;
2191;SDS011;1102;49.718;11.902;2023-03-01T04:08:32;19.07;;;13.07;;
2191;SDS011;1102;49.718;11.902;2023-03-01T04:11:03;18.83;;;15.80;;
2191;SDS011;1102;49.718;11.902;2023-03-01T04:13:51;23.97;;;13.90;;
2191;SDS011;1102;49.718;11.902;2023-03-01T04:16:19;19.47;;;13.00;;
2191;SDS011;1102;49.718;11.902;2023-03-01T04:18:46;16.50;;;13.00;;
2191;SDS011;1102;49.718;11.902;2023-03-01T04:21:12;20.70;;;13.30;;
2191;SDS011;1102;49.718;11.902;2023-03-01T04:23:40;23.57;;;14.37;;
2191;SDS011;1102;49.718;11.902;2023-03-01T04:26:07;18.43;;;13.90;;
2191;SDS011;1102;49.718;11.902;2023-03-01T04:28:37;25.40;;;12.80;;
2191;SDS011;1102;49.718;11.902;2023-03-01T04:31:07;16.73;;;12.90;;
2191;SDS011;1102;49.718;11.902;2023-03-01T04:33:46;18.53;;;15.00;;
2191;SDS011;1102;49.718;11.902;2023-03-01T04:36:15;19.70;;;14.40;;
2191;SDS011;1102;49.718;11.902;2023-03-01T04:38:42;16.13;;;13.43;;
2191;SDS011;1102;49.718;11.902;2023-03-01T04:41:14;17.03;;;13.23;;
2191;SDS011;1102;49.718;11.902;2023-03-01T04:43:42;19.77;;;13.90;;
2191;SDS011;1102;49.718;11.902;2023-03-01T04:46:11;18.77;;;13.43;;
2191;SDS011;1102;49.718;11.902;2023-03-01T04:48:41;20.53;;;13.90;;
2191;SDS011;1102;49.718;11.902;2023-03-01T04:51:09;18.40;;;16.30;;
2191;SDS011;1102;49.718;11.902;2023-03-01T04:53:39;18.60;;;13.43;;
2191;SDS011;1102;49.718;11.902;2023-03-01T04:56:07;16.57;;;12.93;;
2191;SDS011;1102;49.718;11.902;2023-03-01T04:58:34;20.83;;;14.37;;
2191;SDS011;1102;49.718;11.902;2023-03-01T05:01:00;21.33;;;14.87;;
2191;SDS011;1102;49.718;11.902;2023-03-01T05:03:27;20.77;;;14.97;;
2191;SDS011;1102;49.718;11.902;2023-03-01T05:05:54;21.57;;;14.07;;
2191;SDS011;1102;49.718;11.902;2023-03-01T05:08:25;21.07;;;14.20;;
2191;SDS011;1102;49.718;11.902;2023-03-01T05:10:53;23.80;;;14.23;;
2191;SDS011;1102;49.718;11.902;2023-03-01T05:13:21;25.17;;;13.10;;
2191;SDS011;1102;49.718;11.902;2023-03-01T05:16:00;18.27;;;12.70;;
2191;SDS011;1102;49.718;11.902;2023-03-01T05:18:30;21.23;;;14.07;;
2191;SDS011;1102;49.718;11.902;2023-03-01T05:21:11;22.20;;;14.73;;
2191;SDS011;1102;49.718;11.902;2023-03-01T05:23:42;22.67;;;14.30;;
2191;SDS011;1102;49.718;11.902;2023-03-01T05:26:09;16.87;;;12.93;;
2191;SDS011;1102;49.718;11.902;2023-03-01T05:28:52;20.80;;;14.00;;
2191;SDS011;1102;49.718;11.902;2023-03-01T05:31:22;16.80;;;12.97;;
2191;SDS011;1102;49.718;11.902;2023-03-01T05:33:49;20.33;;;14.40;;
2191;SDS011;1102;49.718;11.902;2023-03-01T05:36:16;20.20;;;13.10;;
2191;SDS011;1102;49.718;11.902;2023-03-01T05:38:44;18.67;;;12.87;;
2191;SDS011;1102;49.718;11.902;2023-03-01T05:41:14;24.67;;;14.43;;
2191;SDS011;1102;49.718;11.902;2023-03-01T05:43:43;20.77;;;15.17;;
2191;SDS011;1102;49.718;11.902;2023-03-01T05:46:11;19.30;;;13.77;;
2191;SDS011;1102;49.718;11.902;2023-03-01T05:48:39;18.90;;;13.67;;
2191;SDS011;1102;49.718;11.902;2023-03-01T05:51:06;17.10;;;12.67;;
2191;SDS011;1102;49.718;11.902;2023-03-01T05:53:33;20.53;;;14.77;;
2191;SDS011;1102;49.718;11.902;2023-03-01T05:56:00;21.23;;;14.67;;
2191;SDS011;1102;49.718;11.902;2023-03-01T05:58:29;26.17;;;16.90;;
2191;SDS011;1102;49.718;11.902;2023-03-01T06:00:56;20.00;;;14.57;;
2191;SDS011;1102;49.718;11.902;2023-03-01T06:03:22;22.53;;;15.23;;
2191;SDS011;1102;49.718;11.902;2023-03-01T06:05:49;20.47;;;13.50;;
2191;SDS011;1102;49.718;11.902;2023-03-01T06:08:16;21.20;;;13.37;;
2191;SDS011;1102;49.718;11.902;2023-03-01T06:10:43;18.33;;;13.37;;
2191;SDS011;1102;49.718;11.902;2023-03-01T06:13:09;20.73;;;14.67;;
2191;SDS011;1102;49.718;11.902;2023-03-01T06:15:36;18.10;;;13.50;;
2191;SDS011;1102;49.718;11.902;2023-03-01T06:18:03;24.43;;;15.43;;
2191;SDS011;1102;49.718;11.902;2023-03-01T06:20:29;22.57;;;15.23;;
2191;SDS011;1102;49.718;11.902;2023-03-01T06:22:56;22.73;;;15.53;;
2191;SDS011;1102;49.718;11.902;2023-03-01T06:25:24;23.17;;;14.33;;
2191;SDS011;1102;49.718;11.902;2023-03-01T06:27:52;22.53;;;14.27;;
2191;SDS011;1102;49.718;11.902;2023-03-01T06:30:20;20.03;;;14.43;;
2191;SDS011;1102;49.718;11.902;2023-03-01T06:32:48;24.60;;;15.50;;
2191;SDS011;1102;49.718;11.902;2023-03-01T06:35:16;21.83;;;15.43;;
2191;SDS011;1102;49.718;11.902;2023-03-01T06:37:44;24.00;;;14.40;;
2191;SDS011;1102;49.718;11.902;2023-03-01T06:40:12;22.30;;;15.53;;
2191;SDS011;1102;49.718;11.902;2023-03-01T06:42:40;20.07;;;15.53;;
2191;SDS011;1102;49.718;11.902;2023-03-01T06:45:09;27.50;;;17.67;;
2191;SDS011;1102;49.718;11.902;2023-03-01T06:47:36;20.60;;;15.27;;
2191;SDS011;1102;49.718;11.902;2023-03-01T06:50:03;22.70;;;15.33;;
2191;SDS011;1102;49.718;11.902;2023-03-01T06:52:30;32.23;;;19.10;;
2191;SDS011;1102;49.718;11.902;2023-03-01T06:54:57;21.83;;;14.30;;
2191;SDS011;1102;49.718;11.902;2023-03-01T06:57:24;18.60;;;13.93;;
2191;SDS011;1102;49.718;11.902;2023-03-01T06:59:52;19.87;;;14.83;;
2191;SDS011;1102;49.718;11.902;2023-03-01T07:02:18;27.40;;;16.70;;
2191;SDS011;1102;49.718;11.902;2023-03-01T07:04:45;21.80;;;15.60;;
2191;SDS011;1102;49.718;11.902;2023-03-01T07:07:12;23.83;;;15.00;;
2191;SDS011;1102;49.718;11.902;2023-03-01T07:09:38;29.20;;;16.40;;
2191;SDS011;1102;49.718;11.902;2023-03-01T07:12:05;25.80;;;16.60;;
2191;SDS011;1102;49.718;11.902;2023-03-01T07:14:33;25.23;;;15.60;;
2191;SDS011;1102;49.718;11.902;2023-03-01T07:16:59;28.37;;;14.10;;
2191;SDS011;1102;49.718;11.902;2023-03-01T07:19:26;17.27;;;14.57;;
2191;SDS011;1102;49.718;11.902;2023-03-01T07:21:53;30.63;;;17.33;;
2191;SDS011;1102;49.718;11.902;2023-03-01T07:24:20;20.87;;;14.70;;
2191;SDS011;1102;49.718;11.902;2023-03-01T07:26:50;21.83;;;16.00;;
2191;SDS011;1102;49.718;11.902;2023-03-01T07:29:19;23.23;;;15.60;;
2191;SDS011;1102;49.718;11.902;2023-03-01T07:31:46;24.53;;;16.17;;
2191;SDS011;1102;49.718;11.902;2023-03-01T07:34:13;23.90;;;17.67;;
2191;SDS011;1102;49.718;11.902;2023-03-01T07:36:39;24.00;;;17.93;;
2191;SDS011;1102;49.718;11.902;2023-03-01T07:39:09;21.67;;;14.53;;
2191;SDS011;1102;49.718;11.902;2023-03-01T07:41:37;22.80;;;16.27;;
2191;SDS011;1102;49.718;11.902;2023-03-01T07:44:03;27.33;;;17.27;;
2191;SDS011;1102;49.718;11.902;2023-03-01T07:46:30;25.20;;;16.23;;
2191;SDS011;1102;49.718;11.902;2023-03-01T07:48:57;23.03;;;16.20;;
2191;SDS011;1102;49.718;11.902;2023-03-01T07:51:24;22.37;;;16.50;;
2191;SDS011;1102;49.718;11.902;2023-03-01T07:53:51;23.60;;;14.77;;
2191;SDS011;1102;49.718;11.902;2023-03-01T07:56:17;27.60;;;18.23;;
2191;SDS011;1102;49.718;11.902;2023-03-01T07:58:45;26.00;;;15.77;;
2191;SDS011;1102;49.718;11.902;2023-03-01T08:01:14;22.23;;;16.73;;
2191;SDS011;1102;49.718;11.902;2023-03-01T08:03:42;21.10;;;16.27;;
2191;SDS011;1102;49.718;11.902;2023-03-01T08:06:10;23.30;;;15.10;;
2191;SDS011;1102;49.718;11.902;2023-03-01T08:08:38;23.60;;;17.30;;
2191;SDS011;1102;49.718;11.902;2023-03-01T08:11:05;22.50;;;16.33;;
2191;SDS011;1102;49.718;11.902;2023-03-01T08:13:33;25.30;;;15.97;;
2191;SDS011;1102;49.718;11.902;2023-03-01T08:16:04;18.47;;;13.27;;
2191;SDS011;1102;49.718;11.902;2023-03-01T08:18:32;21.80;;;15.57;;
2191;SDS011;1102;49.718;11.902;2023-03-01T08:21:03;21.83;;;16.17;;
2191;SDS011;1102;49.718;11.902;2023-03-01T08:23:34;21.83;;;16.70;;
2191;SDS011;1102;49.718;11.902;2023-03-01T08:26:11;21.83;;;16.13;;
2191;SDS011;1102;49.718;11.902;2023-03-01T08:28:43;23.07;;;16.10;;
2191;SDS011;1102;49.718;11.902;2023-03-01T08:31:13;27.60;;;17.43;;
2191;SDS011;1102;49.718;11.902;2023-03-01T08:33:41;27.87;;;16.17;;
2191;SDS011;1102;49.718;11.902;2023-03-01T08:36:08;23.07;;;15.60;;
2191;SDS011;1102;49.718;11.902;2023-03-01T08:38:35;24.83;;;17.40;;
2191;SDS011;1102;49.718;11.902;2023-03-01T08:41:02;22.20;;;15.80;;
2191;SDS011;1102;49.718;11.902;2023-03-01T08:43:29;29.33;;;16.77;;
2191;SDS011;1102;49.718;11.902;2023-03-01T08:45:56;23.23;;;17.70;;
2191;SDS011;1102;49.718;11.902;2023-03-01T08:48:23;28.27;;;17.10;;
2191;SDS011;1102;49.718;11.902;2023-03-01T08:50:50;29.23;;;17.53;;
2191;SDS011;1102;49.718;11.902;2023-03-01T08:53:17;22.20;;;15.50;;
2191;SDS011;1102;49.718;11.902;2023-03-01T08:55:43;21.90;;;16.30;;
2191;SDS011;1102;49.718;11.902;2023-03-01T08:58:10;19.93;;;16.00;;
2191;SDS011;1102;49.718;11.902;2023-03-01T09:00:37;23.63;;;17.73;;
2191;SDS011;1102;49.718;11.902;2023-03-01T09:03:03;21.70;;;17.67;;
2191;SDS011;1102;49.718;11.902;2023-03-01T09:05:31;22.43;;;15.77;;
2191;SDS011;1102;49.718;11.902;2023-03-01T09:07:59;23.77;;;15.87;;
2191;SDS011;1102;49.718;11.902;2023-03-01T09:10:26;20.27;;;14.30;;
2191;SDS011;1102;49.718;11.902;2023-03-01T09:12:52;29.10;;;18.07;;
2191;SDS011;1102;49.718;11.902;2023-03-01T09:15:19;22.60;;;16.40;;
2191;SDS011;1102;49.718;11.902;2023-03-01T09:17:45;22.83;;;16.60;;
2191;SDS011;1102;49.718;11.902;2023-03-01T09:20:13;18.60;;;15.73;;
2191;SDS011;1102;49.718;11.902;2023-03-01T09:22:40;22.90;;;16.70;;
2191;SDS011;1102;49.718;11.902;2023-03-01T09:25:06;25.70;;;16.13;;
2191;SDS011;1102;49.718;11.902;2023-03-01T09:27:33;26.03;;;15.73;;
2191;SDS011;1102;49.718;11.902;2023-03-01T09:30:00;20.70;;;15.50;;
2191;SDS011;1102;49.718;11.902;2023-03-01T09:32:27;22.53;;;15.40;;
2191;SDS011;1102;49.718;11.902;2023-03-01T09:34:56;19.30;;;15.03;;
2191;SDS011;1102;49.718;11.902;2023-03-01T09:37:33;22.57;;;13.80;;
2191;SDS011;1102;49.718;11.902;2023-03-01T09:40:02;21.13;;;14.53;;
2191;SDS011;1102;49.718;11.902;2023-03-01T09:42:31;20.70;;;14.83;;
2191;SDS011;1102;49.718;11.902;2023-03-01T09:47:31;20.33;;;15.13;;
2191;SDS011;1102;49.718;11.902;2023-03-01T09:53:25;19.77;;;14.90;;
2191;SDS011;1102;49.718;11.902;2023-03-01T10:00:50;15.70;;;13.10;;
2191;SDS011;1102;49.718;11.902;2023-03-01T10:03:27;20.00;;;15.70;;
2191;SDS011;1102;49.718;11.902;2023-03-01T10:11:30;21.13;;;14.00;;
2191;SDS011;1102;49.718;11.902;2023-03-01T10:14:01;19.87;;;13.90;;
2191;SDS011;1102;49.718;11.902;2023-03-01T10:16:40;21.63;;;15.73;;
2191;SDS011;1102;49.718;11.902;2023-03-01T10:19:10;20.00;;;14.83;;
2191;SDS011;1102;49.718;11.902;2023-03-01T10:21:43;19.90;;;14.50;;
2191;SDS011;1102;49.718;11.902;2023-03-01T10:24:13;22.60;;;17.27;;
2191;SDS011;1102;49.718;11.902;2023-03-01T10:26:47;20.67;;;16.20;;
2191;SDS011;1102;49.718;11.902;2023-03-01T10:29:20;22.87;;;15.10;;
2191;SDS011;1102;49.718;11.902;2023-03-01T10:31:53;21.77;;;15.10;;
2191;SDS011;1102;49.718;11.902;2023-03-01T10:34:22;20.57;;;16.30;;
2191;SDS011;1102;49.718;11.902;2023-03-01T10:37:04;17.57;;;14.00;;
2191;SDS011;1102;49.718;11.902;2023-03-01T10:39:36;19.43;;;15.30;;
2191;SDS011;1102;49.718;11.902;2023-03-01T10:42:22;22.70;;;16.10;;
2191;SDS011;1102;49.718;11.902;2023-03-01T10:44:53;24.77;;;17.90;;
2191;SDS011;1102;49.718;11.902;2023-03-01T10:47:21;23.10;;;16.97;;
2191;SDS011;1102;49.718;11.902;2023-03-01T10:49:59;20.70;;;12.50;;
2191;SDS011;1102;49.718;11.902;2023-03-01T10:52:35;19.53;;;15.93;;
2191;SDS011;1102;49.718;11.902;2023-03-01T10:55:19;24.70;;;15.90;;
2191;SDS011;1102;49.718;11.902;2023-03-01T10:58:39;21.43;;;15.57;;
2191;SDS011;1102;49.718;11.902;2023-03-01T11:00:46;19.63;;;15.03;;
2191;SDS011;1102;49.718;11.902;2023-03-01T11:03:21;20.80;;;16.00;;
2191;SDS011;1102;49.718;11.902;2023-03-01T11:13:57;19.70;;;15.23;;
2191;SDS011;1102;49.718;11.902;2023-03-01T11:16:42;22.10;;;14.80;;
2191;SDS011;1102;49.718;11.902;2023-03-01T11:21:49;25.00;;;16.97;;
2191;SDS011;1102;49.718;11.902;2023-03-01T11:24:24;23.07;;;17.50;;
2191;SDS011;1102;49.718;11.902;2023-03-01T11:26:56;19.70;;;15.83;;
2191;SDS011;1102;49.718;11.902;2023-03-01T11:29:48;20.30;;;15.23;;
2191;SDS011;1102;49.718;11.902;2023-03-01T11:32:23;18.87;;;13.13;;
2191;SDS011;1102;49.718;11.902;2023-03-01T11:35:02;22.47;;;13.87;;
2191;SDS011;1102;49.718;11.902;2023-03-01T11:37:41;23.30;;;14.87;;
2191;SDS011;1102;49.718;11.902;2023-03-01T11:40:11;20.40;;;14.30;;
2191;SDS011;1102;49.718;11.902;2023-03-01T11:42:47;18.17;;;16.03;;
2191;SDS011;1102;49.718;11.902;2023-03-01T11:45:17;19.73;;;15.80;;
2191;SDS011;1102;49.718;11.902;2023-03-01T11:47:53;20.23;;;15.80;;
2191;SDS011;1102;49.718;11.902;2023-03-01T11:50:35;20.27;;;15.70;;
2191;SDS011;1102;49.718;11.902;2023-03-01T12:03:58;18.77;;;13.73;;
2191;SDS011;1102;49.718;11.902;2023-03-01T12:09:38;22.53;;;16.60;;
2191;SDS011;1102;49.718;11.902;2023-03-01T12:12:30;21.97;;;15.80;;
2191;SDS011;1102;49.718;11.902;2023-03-01T12:20:25;18.73;;;14.50;;
2191;SDS011;1102;49.718;11.902;2023-03-01T12:23:19;17.03;;;13.67;;
2191;SDS011;1102;49.718;11.902;2023-03-01T12:26:10;18.13;;;13.33;;
2191;SDS011;1102;49.718;11.902;2023-03-01T12:28:42;18.10;;;13.53;;
2191;SDS011;1102;49.718;11.902;2023-03-01T12:47:14;19.20;;;13.17;;
2191;SDS011;1102;49.718;11.902;2023-03-01T12:49:57;19.07;;;14.53;;
2191;SDS011;1102;49.718;11.902;2023-03-01T12:52:48;15.90;;;12.10;;
2191;SDS011;1102;49.718;11.902;2023-03-01T12:58:13;16.07;;;11.37;;
2191;SDS011;1102;49.718;11.902;2023-03-01T13:03:36;16.23;;;11.37;;
2191;SDS011;1102;49.718;11.902;2023-03-01T13:11:49;13.47;;;10.80;;
2191;SDS011;1102;49.718;11.902;2023-03-01T13:16:52;16.57;;;11.17;;
2191;SDS011;1102;49.718;11.902;2023-03-01T13:19:20;13.57;;;11.43;;
2191;SDS011;1102;49.718;11.902;2023-03-01T13:21:49;14.60;;;11.47;;
2191;SDS011;1102;49.718;11.902;2023-03-01T13:29:44;13.00;;;10.33;;
2191;SDS011;1102;49.718;11.902;2023-03-01T13:37:45;15.33;;;12.33;;
2191;SDS011;1102;49.718;11.902;2023-03-01T13:42:49;16.23;;;13.53;;
2191;SDS011;1102;49.718;11.902;2023-03-01T13:45:40;14.40;;;12.63;;
2191;SDS011;1102;49.718;11.902;2023-03-01T13:48:21;13.77;;;11.23;;
2191;SDS011;1102;49.718;11.902;2023-03-01T13:51:12;14.93;;;12.83;;
2191;SDS011;1102;49.718;11.902;2023-03-01T13:53:41;16.73;;;12.37;;
2191;SDS011;1102;49.718;11.902;2023-03-01T13:56:15;13.00;;;11.53;;
2191;SDS011;1102;49.718;11.902;2023-03-01T13:58:59;18.17;;;13.47;;
2191;SDS011;1102;49.718;11.902;2023-03-01T14:01:32;15.60;;;12.10;;
2191;SDS011;1102;49.718;11.902;2023-03-01T14:04:01;15.97;;;11.83;;
2191;SDS011;1102;49.718;11.902;2023-03-01T14:06:31;15.57;;;11.90;;
2191;SDS011;1102;49.718;11.902;2023-03-01T14:09:02;16.40;;;11.10;;
2191;SDS011;1102;49.718;11.902;2023-03-01T14:14:41;13.20;;;11.20;;
2191;SDS011;1102;49.718;11.902;2023-03-01T14:17:36;22.80;;;13.77;;
2191;SDS011;1102;49.718;11.902;2023-03-01T14:22:47;13.67;;;12.23;;
2191;SDS011;1102;49.718;11.902;2023-03-01T14:25:17;18.20;;;11.60;;
2191;SDS011;1102;49.718;11.902;2023-03-01T14:27:54;16.60;;;11.87;;
2191;SDS011;1102;49.718;11.902;2023-03-01T14:30:24;15.00;;;12.10;;
2191;SDS011;1102;49.718;11.902;2023-03-01T14:33:06;13.30;;;10.87;;
2191;SDS011;1102;49.718;11.902;2023-03-01T14:35:51;14.97;;;10.60;;
2191;SDS011;1102;49.718;11.902;2023-03-01T14:38:29;18.20;;;12.37;;
2191;SDS011;1102;49.718;11.902;2023-03-01T14:40:58;13.10;;;10.10;;
2191;SDS011;1102;49.718;11.902;2023-03-01T14:43:29;21.33;;;12.83;;
2191;SDS011;1102;49.718;11.902;2023-03-01T14:45:57;18.33;;;14.57;;
2191;SDS011;1102;49.718;11.902;2023-03-01T14:48:24;13.87;;;11.77;;
2191;SDS011;1102;49.718;11.902;2023-03-01T14:50:53;13.73;;;11.17;;
2191;SDS011;1102;49.718;11.902;2023-03-01T14:53:24;14.60;;;11.13;;
2191;SDS011;1102;49.718;11.902;2023-03-01T14:55:54;14.73;;;12.63;;
2191;SDS011;1102;49.718;11.902;2023-03-01T14:58:25;15.03;;;11.60;;
2191;SDS011;1102;49.718;11.902;2023-03-01T15:00:56;16.40;;;12.07;;
2191;SDS011;1102;49.718;11.902;2023-03-01T15:05:58;15.53;;;11.90;;
2191;SDS011;1102;49.718;11.902;2023-03-01T15:08:27;18.80;;;13.40;;
2191;SDS011;1102;49.718;11.902;2023-03-01T15:11:04;17.73;;;12.93;;
2191;SDS011;1102;49.718;11.902;2023-03-01T15:13:51;16.63;;;13.20;;
2191;SDS011;1102;49.718;11.902;2023-03-01T15:16:19;19.60;;;15.10;;
2191;SDS011;1102;49.718;11.902;2023-03-01T15:18:53;13.37;;;11.10;;
2191;SDS011;1102;49.718;11.902;2023-03-01T15:21:23;19.43;;;13.40;;
2191;SDS011;1102;49.718;11.902;2023-03-01T15:23:55;17.73;;;14.23;;
2191;SDS011;1102;49.718;11.902;2023-03-01T15:26:31;17.63;;;13.53;;
2191;SDS011;1102;49.718;11.902;2023-03-01T15:29:03;19.47;;;12.77;;
2191;SDS011;1102;49.718;11.902;2023-03-01T15:31:34;21.93;;;15.47;;
2191;SDS011;1102;49.718;11.902;2023-03-01T15:34:11;16.80;;;13.47;;
2191;SDS011;1102;49.718;11.902;2023-03-01T15:36:48;22.27;;;15.70;;
2191;SDS011;1102;49.718;11.902;2023-03-01T15:42:04;24.53;;;14.60;;
2191;SDS011;1102;49.718;11.902;2023-03-01T15:44:35;16.73;;;14.50;;
2191;SDS011;1102;49.718;11.902;2023-03-01T15:47:22;21.00;;;12.27;;
2191;SDS011;1102;49.718;11.902;2023-03-01T15:49:53;19.00;;;15.33;;
2191;SDS011;1102;49.718;11.902;2023-03-01T15:54:58;20.37;;;14.97;;
2191;SDS011;1102;49.718;11.902;2023-03-01T15:57:27;17.80;;;14.40;;
2191;SDS011;1102;49.718;11.902;2023-03-01T15:59:53;20.50;;;16.03;;
2191;SDS011;1102;49.718;11.902;2023-03-01T16:02:21;20.93;;;17.33;;
2191;SDS011;1102;49.718;11.902;2023-03-01T16:04:49;17.63;;;15.70;;
2191;SDS011;1102;49.718;11.902;2023-03-01T16:07:16;23.70;;;17.10;;
2191;SDS011;1102;49.718;11.902;2023-03-01T16:09:43;22.90;;;16.10;;
2191;SDS011;1102;49.718;11.902;2023-03-01T16:12:14;23.43;;;16.30;;
2191;SDS011;1102;49.718;11.902;2023-03-01T16:14:42;26.60;;;16.40;;
2191;SDS011;1102;49.718;11.902;2023-03-01T16:17:11;19.50;;;16.07;;
2191;SDS011;1102;49.718;11.902;2023-03-01T16:19:38;23.70;;;18.00;;
2191;SDS011;1102;49.718;11.902;2023-03-01T16:22:09;21.60;;;16.90;;
2191;SDS011;1102;49.718;11.902;2023-03-01T16:24:36;24.43;;;17.83;;
2191;SDS011;1102;49.718;11.902;2023-03-01T16:27:03;23.90;;;17.73;;
2191;SDS011;1102;49.718;11.902;2023-03-01T16:29:30;25.03;;;18.93;;
2191;SDS011;1102;49.718;11.902;2023-03-01T16:31:59;23.70;;;16.90;;
2191;SDS011;1102;49.718;11.902;2023-03-01T16:34:28;24.57;;;15.50;;
2191;SDS011;1102;49.718;11.902;2023-03-01T16:36:54;21.50;;;16.70;;
2191;SDS011;1102;49.718;11.902;2023-03-01T16:39:21;20.83;;;16.20;;
2191;SDS011;1102;49.718;11.902;2023-03-01T16:41:48;23.70;;;16.40;;
2191;SDS011;1102;49.718;11.902;2023-03-01T16:44:14;31.80;;;17.93;;
2191;SDS011;1102;49.718;11.902;2023-03-01T16:46:41;22.80;;;18.07;;